Time;durP1;ratioP1;P1;durP2;ratioP2;P2;SDS_P1;SDS_P2;PMS_P1;PMS_P2;Temp;Humidity;BMP_temperature;BMP_pressure;BME280_temperature;BME280_humidity;BME280_pressure;Samples;Min_cycle;Max_cycle;Signal;HPM_P1;HPM_P2
2021/04/07 06:02:59;;;;;;;6.70;6.00;;;;;;;;;;10549480;28;20032;-88
2021/04/07 06:08:00;;;;;;;7.85;7.05;;;;;;;;;;10589846;28;20058;-87
2021/04/07 06:13:01;;;;;;;;;;;;;;;;;;10637913;28;20092;-87
2021/04/07 06:18:04;;;;;;;8.18;7.47;;;;;;;;;;10612101;28;19954;-89
2021/04/07 06:23:09;;;;;;;5.15;4.65;;;;;;;;;;10601356;28;20030;-88
2021/04/07 06:28:11;;;;;;;6.28;5.78;;;;;;;;;;10600900;28;20035;-88
2021/04/07 06:33:17;;;;;;;6.30;5.70;;;;;;;;;;10601663;28;20122;-88
2021/04/07 06:38:18;;;;;;;6.35;5.75;;;;;;;;;;10600975;28;20019;-87
2021/04/07 06:43:20;;;;;;;6.20;5.70;;;;;;;;;;10599538;28;20031;-88
2021/04/07 06:48:21;;;;;;;6.35;5.75;;;;;;;;;;10601173;28;20034;-88
2021/04/07 06:53:23;;;;;;;6.85;6.25;;;;;;;;;;10599138;28;20389;-88
2021/04/07 06:58:25;;;;;;;5.82;4.85;;;;;;;;;;10602504;28;20045;-87
2021/04/07 07:03:26;;;;;;;3.17;2.88;;;;;;;;;;10598294;28;20078;-86
2021/04/07 07:08:30;;;;;;;3.63;3.05;;;;;;;;;;10577731;28;20143;-84
2021/04/07 07:13:31;;;;;;;3.08;2.83;;;;;;;;;;10582581;28;20366;-84
2021/04/07 07:18:32;;;;;;;4.00;3.70;;;;;;;;;;10582217;28;20020;-86
2021/04/07 07:23:33;;;;;;;3.42;3.10;;;;;;;;;;10582553;28;20072;-86
2021/04/07 07:28:52;;;;;;;3.70;3.40;;;;;;;;;;10604938;28;20031;-85
2021/04/07 07:33:54;;;;;;;3.42;3.13;;;;;;;;;;10605938;28;20030;-85
2021/04/07 07:38:58;;;;;;;3.10;2.80;;;;;;;;;;10580747;28;20205;-85
2021/04/07 07:44:00;;;;;;;3.38;3.08;;;;;;;;;;10579279;28;20032;-86
2021/04/07 07:49:02;;;;;;;3.50;2.60;;;;;;;;;;10579986;28;20087;-85
2021/04/07 07:54:12;;;;;;;3.15;2.85;;;;;;;;;;10577764;28;20350;-84
2021/04/07 07:59:13;;;;;;;3.00;2.70;;;;;;;;;;10577460;28;20026;-88
2021/04/07 08:04:14;;;;;;;3.85;3.50;;;;;;;;;;10572896;28;20036;-87
2021/04/07 08:09:15;;;;;;;3.13;2.83;;;;;;;;;;10586650;28;20028;-87
2021/04/07 08:14:17;;;;;;;2.88;2.53;;;;;;;;;;10583781;28;20038;-85
2021/04/07 08:19:18;;;;;;;2.88;2.55;;;;;;;;;;10583368;27;20039;-87
2021/04/07 08:24:20;;;;;;;3.28;2.97;;;;;;;;;;10583582;28;20047;-87
2021/04/07 08:29:21;;;;;;;3.70;2.83;;;;;;;;;;10605489;28;20023;-86
2021/04/07 08:34:23;;;;;;;1.90;1.70;;;;;;;;;;10600374;27;20044;-86
2021/04/07 08:39:24;;;;;;;3.70;3.00;;;;;;;;;;10577833;28;20019;-86
2021/04/07 08:44:25;;;;;;;2.25;1.70;;;;;;;;;;10577084;28;20109;-87
2021/04/07 08:49:37;;;;;;;2.25;1.73;;;;;;;;;;10580707;28;20012;-87
2021/04/07 08:54:45;;;;;;;2.10;1.90;;;;;;;;;;10575446;28;20485;-85
2021/04/07 08:59:52;;;;;;;3.45;2.40;;;;;;;;;;10573698;28;20047;-86
2021/04/07 09:05:01;;;;;;;6.43;5.82;;;;;;;;;;10572894;28;20091;-87
2021/04/07 09:10:08;;;;;;;4.05;2.78;;;;;;;;;;10579625;28;20077;-87
2021/04/07 09:15:16;;;;;;;2.72;2.30;;;;;;;;;;10573013;28;20032;-86
2021/04/07 09:20:32;;;;;;;2.58;2.30;;;;;;;;;;10590008;28;20451;-85
2021/04/07 09:25:33;;;;;;;2.58;2.35;;;;;;;;;;10569769;28;20438;-87
2021/04/07 09:30:45;;;;;;;3.15;2.60;;;;;;;;;;10568573;28;20112;-87
2021/04/07 09:35:52;;;;;;;2.60;2.40;;;;;;;;;;10570592;28;20023;-87
2021/04/07 09:41:05;;;;;;;3.80;3.50;;;;;;;;;;10573199;28;20024;-87
2021/04/07 09:46:06;;;;;;;4.93;4.43;;;;;;;;;;10572495;28;20473;-87
2021/04/07 09:51:26;;;;;;;3.92;3.53;;;;;;;;;;10576497;28;20057;-87
2021/04/07 09:56:27;;;;;;;5.18;4.70;;;;;;;;;;10576948;28;20101;-88
2021/04/07 10:01:37;;;;;;;8.57;7.57;;;;;;;;;;10590324;28;20046;-87
2021/04/07 10:06:39;;;;;;;3.10;2.10;;;;;;;;;;10589621;28;20032;-84
2021/04/07 10:11:41;;;;;;;4.30;2.97;;;;;;;;;;10582672;28;20024;-86
2021/04/07 10:16:42;;;;;;;4.30;3.90;;;;;;;;;;10588438;28;20027;-86
2021/04/07 10:21:44;;;;;;;3.40;3.10;;;;;;;;;;10587981;28;20063;-86
2021/04/07 10:26:45;;;;;;;3.20;2.90;;;;;;;;;;10583348;28;20100;-85
2021/04/07 10:31:53;;;;;;;3.65;2.20;;;;;;;;;;10580508;28;20065;-85
2021/04/07 10:36:54;;;;;;;4.22;2.20;;;;;;;;;;10579668;28;20054;-84
2021/04/07 10:41:56;;;;;;;3.35;2.40;;;;;;;;;;10581345;28;20051;-85
2021/04/07 10:46:57;;;;;;;2.90;2.60;;;;;;;;;;10582568;28;20019;-85
2021/04/07 10:52:00;;;;;;;2.00;1.80;;;;;;;;;;10581784;28;20027;-87
2021/04/07 10:57:09;;;;;;;2.83;1.90;;;;;;;;;;10584083;28;20024;-86
2021/04/07 11:02:16;;;;;;;2.15;1.60;;;;;;;;;;10600283;27;20016;-86
2021/04/07 11:13:05;;;;;;;3.72;1.45;;;;;;;;;;10660758;27;20027;-85
2021/04/07 11:18:44;;;;;;;3.88;1.38;;;;;;;;;;10618645;28;20040;-82
2021/04/07 11:24:24;;;;;;;5.63;1.92;;;;;;;;;;10619206;28;20039;-82
2021/04/07 11:30:01;;;;;;;6.47;2.17;;;;;;;;;;10616152;28;20042;-84
2021/04/07 11:35:25;;;;;;;7.07;2.38;;;;;;;;;;10545120;28;20520;-86
2021/04/07 11:51:51;;;;;;;5.93;1.40;;;;;;;;;;10494574;28;20048;-85
2021/04/07 11:56:58;;;;;;;4.70;1.23;;;;;;;;;;10580269;28;20099;-87
2021/04/07 12:02:01;;;;;;;3.65;1.40;;;;;;;;;;10576901;28;20103;-86
2021/04/07 12:07:09;;;;;;;4.78;1.90;;;;;;;;;;10577033;28;20392;-87
2021/04/07 12:29:43;;;;;;;5.22;1.30;;;;;;;;;;10364724;28;20029;-86
2021/04/07 12:35:08;;;;;;;5.15;1.08;;;;;;;;;;10499089;28;20477;-87
2021/04/07 12:40:50;;;;;;;6.20;1.40;;;;;;;;;;10577331;28;20446;-86
2021/04/07 12:46:29;;;;;;;5.38;1.63;;;;;;;;;;10465484;28;20021;-85
2021/04/07 12:52:19;;;;;;;7.53;2.28;;;;;;;;;;10588241;28;20052;-86
2021/04/07 13:03:19;;;;;;;4.32;1.67;;;;;;;;;;10506098;28;20028;-84
2021/04/07 13:08:29;;;;;;;6.50;2.00;;;;;;;;;;10489655;28;20457;-88
2021/04/07 13:14:08;;;;;;;4.25;1.48;;;;;;;;;;10425244;28;20041;-86
2021/04/07 13:19:58;;;;;;;4.25;1.20;;;;;;;;;;10416373;28;20044;-86
2021/04/07 13:31:02;;;;;;;4.07;1.30;;;;;;;;;;10507243;28;20025;-87
2021/04/07 13:48:18;;;;;;;4.13;1.30;;;;;;;;;;10513652;28;20198;-87
2021/04/07 14:05:01;;;;;;;5.93;1.58;;;;;;;;;;10470323;28;20017;-88
2021/04/07 14:10:04;;;;;;;4.00;1.17;;;;;;;;;;10542529;28;20024;-87
2021/04/07 14:15:08;;;;;;;6.72;2.03;;;;;;;;;;10585804;28;20043;-85
2021/04/07 14:20:31;;;;;;;6.50;2.00;;;;;;;;;;10611715;28;20119;-86
2021/04/07 14:25:41;;;;;;;6.35;1.50;;;;;;;;;;10628875;28;20035;-86
2021/04/07 14:30:43;;;;;;;6.43;2.00;;;;;;;;;;10594642;28;20066;-86
2021/04/07 14:35:48;;;;;;;8.30;5.05;;;;;;;;;;10590694;28;20039;-85
2021/04/07 14:40:49;;;;;;;5.15;1.70;;;;;;;;;;10596592;28;20039;-84
2021/04/07 14:45:52;;;;;;;4.70;2.00;;;;;;;;;;10623874;22;20046;-85
2021/04/07 14:51:27;;;;;;;5.15;1.63;;;;;;;;;;10641409;27;20031;-86
2021/04/07 20:15:18;;;;;;;5.07;1.50;;;;;;;;;;10629323;27;20306;-85
2021/04/07 20:20:22;;;;;;;5.15;1.17;;;;;;;;;;10625811;28;20050;-86
